Auburntown, Tennessee
Current Conditions -  °F | °C
As of 3:53 PM on Friday 19 Dec 2014 (Local Time) from KBNA Reporting Station
Broken Clouds Broken Clouds  
Wind Chill: 36°   Ceiling: 20000
Heat Index: 40°   Visibility: 10mi
Dew Point: 28°   Wind: 6mph
Humidity: 63%   Direction: 40°NE
Pressure: 30.24"   Gusts: NA
Location:  35.95°N, 86.1°W
Report Text: KBNA 192153Z 04005KT 10SM FEW110 BKN200 04/M02 A3024 RMK AO2 SLP245 T00441022
Loading
Personal Weather Stations






























Interactive Weather Map New forecast layout! Learn more

10-Day Weather Forecast

Advertisements
Track Severe Weather on mobile